Nathaniel B. Palmer — WBP3210 — position and weather

sailwx.info

Track history (hours):
 
Tides and Currents Weather Stations Pressure Air Temp Water Temp Dewpoint Dewpoint Depression Visibility Wind Speed Wind Dir Waves Ship Positions

Oceanographic research ship Nathaniel B. Palmer (USA)

Contact: Ethan Norris, ethan.norris.contractor@usap.gov

Detailed information on ship capabilities available from University of Delaware's Ocean Information Center and ARCUS's ALIAS (Arctic Logistics Information and Support) project.

Owner: OFFSHORE SERVICE VESSELS, GALLIANO, LA. More information available from US FCC via Universal Licensing System and Coast Guard Vessel Documentation Center.

Last reported at 2017-Jul-24 01:00 UTC. Time now 2017-Jul-24 02:27 UTC.
Position S 31°06' E 177°30'.

Type: Other ship. MMSI: 366610000.

Wind from 230 at 17 knots

Barometer 1013.7 mb
Air temperature 16.4 ° C
Water temperature 18.7 ° C

Date/timePositionNaut miles runAvg speedWind from/ knotsBaromVisibWave heightAir tempDewpointWater temp
2017-Jul-24 01:00S 31°06' E 177°30'8 7.9 230 / 171013.7 16.4 18.7
2017-Jul-24 00:00S 31°00' E 177°24'8 7.9 250 / 171014.6 16.6 18.8
2017-Jul-23 23:00S 30°54' E 177°18'0 0.0 240 / 191015.2 17.1 18.8
2017-Jul-23 22:00S 30°54' E 177°18'0 0.0 230 / 201015.1 17.3 18.8
2017-Jul-23 21:00S 30°54' E 177°18'0 0.0 230 / 191014.7 15.8 18.8
2017-Jul-23 20:00S 30°54' E 177°18'1212.0 240 / 161014.0 16.0 18.8
2017-Jul-23 19:00S 31°06' E 177°18'8 7.9 240 / 171013.3 16.4 18.6
2017-Jul-23 18:00S 31°12' E 177°12'1313.0 240 / 201012.7 16.6 18.6
2017-Jul-23 17:00S 31°24' E 177°06'8 7.9 240 / 221012.4 16.4 18.9
2017-Jul-23 16:00S 31°30' E 177°00'1313.0 240 / 231012.4 16.5 18.8
2017-Jul-23 15:00S 31°42' E 176°54'1313.0 250 / 191012.4 16.5 18.7
2017-Jul-23 14:00S 31°54' E 176°48'8 7.9 240 / 171012.2 16.4 18.9
2017-Jul-23 13:00S 32°00' E 176°42'1313.0 250 / 201012.1 15.9 18.1
2017-Jul-23 12:00S 32°12' E 176°36'1313.0 250 / 191011.9 15.8 17.6
2017-Jul-23 11:00S 32°24' E 176°30'8 7.9 250 / 191011.7 15.7 17.6
2017-Jul-23 10:00S 32°30' E 176°24'1313.0 240 / 191011.4 15.8 17.6
2017-Jul-23 09:00S 32°42' E 176°18'8 7.8 250 / 201010.8 15.9 17.6
2017-Jul-23 08:00S 32°48' E 176°12'1313.0 240 / 181010.2 15.7 17.5
2017-Jul-23 07:00S 33°00' E 176°06'1313.0 250 / 171009.7 15.4 17.0
2017-Jul-23 06:00S 33°12' E 176°00'8 7.8 240 / 201009.0 15.1 17.2
2017-Jul-23 05:00S 33°18' E 175°54'1313.0 250 / 231008.4 15.6 17.2
2017-Jul-23 04:00S 33°30' E 175°48'8 7.8 250 / 221008.1 15.7 17.1
2017-Jul-23 03:00S 33°36' E 175°42'1313.0 250 / 201007.9 15.7 17.2
2017-Jul-23 02:00S 33°48' E 175°36'8 7.8 240 / 171008.0 15.8 17.1
2017-Jul-23 01:00S 33°54' E 175°30'8 7.8 230 / 131008.4 15.3 17.1
2017-Jul-23 00:00S 34°00' E 175°24'0 0.0 240 / 161008.5 15.5 17.1
2017-Jul-22 23:00S 34°00' E 175°24'8 7.8 250 / 181008.3 15.9 17.1
2017-Jul-22 22:00S 33°54' E 175°30'8 7.8 240 / 201007.9 15.8 17.1
2017-Jul-22 21:00S 33°48' E 175°36'1313.0 250 / 221007.1 15.3 17.1
2017-Jul-22 20:00S 33°36' E 175°42'1313.0 250 / 231006.3 15.7 17.2
2017-Jul-22 19:00S 33°24' E 175°36'8 7.8 260 / 241005.6 15.5 17.1
2017-Jul-22 18:00S 33°18' E 175°42'8 7.8 260 / 261005.0 15.7 17.1
2017-Jul-22 17:00S 33°12' E 175°48'1313.0 260 / 261004.6 15.4 17.3
2017-Jul-22 16:00S 33°00' E 175°54'8 7.8 260 / 261004.6 15.7 17.0
2017-Jul-22 15:00S 32°54' E 176°00'1313.0 270 / 281004.6 16.0 17.3
2017-Jul-22 14:00S 32°42' E 176°06'8 7.8 270 / 291004.5 15.7 17.5
2017-Jul-22 13:00S 32°36' E 176°12'8 7.8 270 / 291004.4 16.1 17.7
2017-Jul-22 12:00S 32°30' E 176°18'1313.0 270 / 271004.4 16.6 17.6
2017-Jul-22 11:00S 32°18' E 176°24'8 7.9 280 / 311004.1 17.0 17.6
2017-Jul-22 10:00S 32°12' E 176°30'6 6.0 280 / 331003.9 16.9 17.7
2017-Jul-22 09:00S 32°06' E 176°30'1313.0 280 / 321003.7 17.6 18.7
2017-Jul-22 08:00S 31°54' E 176°36'8 7.9 290 / 331003.6 17.6 18.9
2017-Jul-22 07:00S 31°48' E 176°42'8 7.9 290 / 351003.2 17.9 18.8
2017-Jul-22 06:00S 31°42' E 176°48'8 7.9 290 / 351003.0 18.0 18.9
2017-Jul-22 05:00S 31°36' E 176°54'1212.0 290 / 361002.9 18.3 19.0
2017-Jul-22 04:00S 31°24' E 176°54'8 7.9 290 / 351003.3 18.3 19.0
2017-Jul-22 03:00S 31°18' E 177°00'8 7.9 290 / 341003.8 18.5 18.9
2017-Jul-22 02:00S 31°12' E 177°06'1313.1 290 / 311004.6 18.1 18.4
2017-Jul-22 01:00S 31°00' E 177°12'8 7.9 290 / 331005.5 18.7 18.6
2017-Jul-22 00:00S 30°54' E 177°18'0 0.0 290 / 321006.7 18.8 18.9
2017-Jul-21 23:00S 30°54' E 177°18'0 0.0 290 / 371007.3 19.2 18.9
2017-Jul-21 22:00S 30°54' E 177°18'0 0.0 300 / 321006.4 18.6 18.9
2017-Jul-21 21:00S 30°54' E 177°18'0 0.0 300 / 311006.0 18.5 18.9
2017-Jul-21 20:00S 30°54' E 177°18'0 0.0 300 / 341005.9 17.9 18.9
2017-Jul-21 19:00S 30°54' E 177°18'0 0.0 310 / 311005.3 18.0 18.9
2017-Jul-21 18:00S 30°54' E 177°18'5 5.1 310 / 331005.2 17.2 18.9
2017-Jul-21 17:00S 30°54' E 177°24'0 0.0 300 / 351005.1 18.3 18.9
2017-Jul-21 16:00S 30°54' E 177°24'8 7.9 300 / 321005.3 18.6 18.9
2017-Jul-21 15:00S 31°00' E 177°30'8 7.9 290 / 321005.5 18.4 18.9
2017-Jul-21 14:00S 30°54' E 177°24'5 5.1 300 / 311005.9 17.9 18.9
2017-Jul-21 13:00S 30°54' E 177°18'0 0.0 290 / 311006.3 16.1 18.9
2017-Jul-21 12:00S 30°54' E 177°18'8 7.9 290 / 301006.2 18.0 18.8
2017-Jul-21 11:00S 30°48' E 177°12'6 6.0 300 / 281006.1 18.6 18.9
2017-Jul-21 10:00S 30°42' E 177°12'5 5.2 300 / 251006.4 17.9 18.9
2017-Jul-21 09:00S 30°42' E 177°06'8 7.9 290 / 301006.3 17.3 19.0
2017-Jul-21 08:00S 30°36' E 177°00'8 7.9 310 / 311005.8 19.0 19.0
2017-Jul-21 07:00S 30°30' E 176°54'0 0.0 310 / 351005.6 19.2 19.1
2017-Jul-21 06:00S 30°30' E 176°54'0 0.0 320 / 351005.6 19.1 19.1
2017-Jul-21 05:00S 30°30' E 176°54'0 0.0 310 / 331005.6 19.2 19.1
2017-Jul-21 04:00S 30°30' E 176°54'0 0.0 310 / 341005.8 19.5 19.1
2017-Jul-21 03:00S 30°30' E 176°54'0 0.0 310 / 331006.0 19.5 19.1
2017-Jul-21 02:00S 30°30' E 176°54'5 5.2 310 / 301006.5 19.6 19.1
2017-Jul-21 01:00S 30°30' E 176°48'6 6.0 310 / 281007.3 19.8 19.1
2017-Jul-21 00:00S 30°24' E 176°48'8 7.9 300 / 291008.6 19.6 19.1
2017-Jul-20 23:00S 30°30' E 176°54'0 0.0 300 / 281008.9 19.3 19.1
2017-Jul-20 22:00S 30°30' E 176°54'0 0.0 300 / 281008.5 19.3 19.1
2017-Jul-20 21:00S 30°30' E 176°54'5 5.2 300 / 231008.1 18.4 19.0
2017-Jul-20 20:00S 30°30' E 176°48'5 5.2 290 / 301007.2 18.5 19.0
2017-Jul-20 19:00S 30°30' E 176°54'6 6.0 300 / 321006.3 18.4 19.0
2017-Jul-20 18:00S 30°24' E 176°54'5 5.2 300 / 311005.1 18.4 19.0
2017-Jul-20 17:00S 30°24' E 176°48'5 5.2 300 / 301004.8 18.6 19.0
2017-Jul-20 16:00S 30°24' E 176°54'6 6.0 300 / 311005.0 18.4 19.0
2017-Jul-20 15:00S 30°30' E 176°54'6 6.0 290 / 321005.0 18.5 19.0
2017-Jul-20 14:00S 30°24' E 176°54'5 5.2 300 / 321004.5 18.4 19.0
2017-Jul-20 13:00S 30°24' E 176°48'0 0.0 290 / 311004.2 18.5 19.0
2017-Jul-20 12:00S 30°24' E 176°48'8 7.9 290 / 311003.8 18.7 19.0
2017-Jul-20 11:00S 30°18' E 176°42'0 0.0 300 / 321003.6 18.8 19.0
2017-Jul-20 10:00S 30°18' E 176°42'0 0.0 300 / 361003.7 18.7 19.0
2017-Jul-20 09:00S 30°18' E 176°42'8 7.9 290 / 371002.9 18.9 19.0
2017-Jul-20 08:00S 30°24' E 176°48'0 0.0 310 / 371002.3 18.2 19.1
2017-Jul-20 07:00S 30°24' E 176°48'0 0.0 320 / 351002.0 16.7 19.1
2017-Jul-20 06:00S 30°24' E 176°48'0 0.0 300 / 341002.8 16.3 19.1
2017-Jul-20 05:00S 30°24' E 176°48'8 7.9 280 / 381001.6 16.3 19.1
2017-Jul-20 04:00S 30°18' E 176°42'0 0.0 270 / 27999.9 17.0 19.0
2017-Jul-20 03:00S 30°18' E 176°42'8 7.9 340 / 31999.6 19.3 19.2
2017-Jul-20 02:00S 30°12' E 176°36'8 7.9 360 / 381000.2 21.1 19.4
2017-Jul-20 01:00S 30°06' E 176°30'6 6.0 350 / 281002.3 20.0 19.5
2017-Jul-20 00:00S 30°00' E 176°30'0 0.0 020 / 331003.9 19.5 19.6
2017-Jul-19 23:00S 30°00' E 176°30'0 0.0 020 / 331006.3 19.2 19.6
2017-Jul-19 22:00S 30°00' E 176°30'0 0.0 020 / 331007.6 19.5 19.6
2017-Jul-19 21:00S 30°00' E 176°30'1010.4 020 / 331008.0 20.0 19.5
2017-Jul-19 20:00S 30°00' E 176°18'5 5.2 020 / 371007.9 19.6 19.3
2017-Jul-19 19:00S 30°00' E 176°12'1010.4 010 / 361008.2 18.8 19.2
2017-Jul-19 18:00S 30°00' E 176°00'5 5.2 010 / 301008.5 19.1 19.0
2017-Jul-19 17:00S 30°00' E 175°54'0 0.0 010 / 281009.4 19.2 18.7
2017-Jul-19 16:00S 30°00' E 175°54'0 0.0 010 / 281010.2 19.2 18.7
2017-Jul-19 15:00S 30°00' E 175°54'0 0.0 010 / 281010.9 19.2 18.7
2017-Jul-19 14:00S 30°00' E 175°54'1212.0 010 / 321011.0 19.2 18.7
2017-Jul-19 13:00S 30°06' E 175°42'8 7.9 010 / 311011.1 18.9 18.7
2017-Jul-19 12:00S 30°00' E 175°36'5 5.2 010 / 261011.9 18.9 18.4
2017-Jul-19 11:00S 30°00' E 175°30'5 5.2 030 / 151013.2 18.5 18.5
2017-Jul-19 10:00S 30°00' E 175°24'0 0.0 020 / 171013.9 18.4 18.6
2017-Jul-19 09:00S 30°00' E 175°24'5 5.2 010 / 171014.2 18.9 18.6
2017-Jul-19 08:00S 30°00' E 175°30'5 5.2 010 / 171014.0 18.8 18.6
2017-Jul-19 07:00S 30°00' E 175°24'1010.4 030 / 151014.1 18.5 18.6
2017-Jul-19 06:00S 30°00' E 175°12'1010.4 030 / 151014.1 18.4 18.6
2017-Jul-19 05:00S 30°00' E 175°00'5 5.2 090 / 101014.3 18.1 18.6
2017-Jul-19 04:00S 30°00' E 174°54'0 0.0 100 / 81014.7 17.9 18.7
2017-Jul-19 03:00S 30°00' E 174°54'0 0.0 110 / 61015.2 17.6 18.7
2017-Jul-19 02:00S 30°00' E 174°54'0 0.0 090 / 41016.0 17.4 18.6
2017-Jul-19 01:00S 30°00' E 174°54'5 5.2 090 / 41017.0 17.7 18.6
2017-Jul-19 00:00S 30°00' E 174°48'1010.4 130 / 31018.2 17.5 18.2
2017-Jul-18 23:00S 30°00' E 174°36'5 5.2 120 / 21018.9 17.4 18.1
2017-Jul-18 22:00S 30°00' E 174°30'5 5.2 130 / 21018.8 18.2 18.0
2017-Jul-18 21:00S 30°00' E 174°24'0 0.0 240 / 21018.6 18.6 18.0
2017-Jul-18 20:00S 30°00' E 174°24'0 0.0 230 / 41018.2 19.0 18.0
2017-Jul-18 19:00S 30°00' E 174°24'5 5.2 240 / 61017.8 17.8 18.0
2017-Jul-18 18:00S 30°00' E 174°18'1010.4 260 / 81017.6 18.1 18.6
2017-Jul-18 17:00S 30°00' E 174°06'5 5.2 280 / 81017.5 18.0 19.0
2017-Jul-18 16:00S 30°00' E 174°00'0 0.0 270 / 91017.8 17.8 19.0
2017-Jul-18 15:00S 30°00' E 174°00'0 0.0 290 / 91018.0 17.9 19.0
2017-Jul-18 14:00S 30°00' E 174°00'5 5.2 290 / 91018.4 17.9 19.0
2017-Jul-18 13:00S 30°00' E 173°54'1010.4 300 / 61018.7 17.8 18.9
2017-Jul-18 12:00S 30°00' E 173°42'1010.4 340 / 61019.1 17.7 19.0
2017-Jul-18 11:00S 30°00' E 173°30'5 5.2 350 / 51019.1 16.7 18.9
2017-Jul-18 10:00S 30°00' E 173°24'0 0.0 320 / 31019.3 16.1 18.9
2017-Jul-18 09:00S 30°00' E 173°24'5 5.2 310 / 101019.6 16.6 18.9
2017-Jul-18 08:00S 30°00' E 173°30'5 5.2 300 / 141019.4 17.4 18.9
2017-Jul-18 07:00S 30°00' E 173°24'0 0.0 320 / 151019.1 18.4 19.0
2017-Jul-18 06:00S 30°00' E 173°24'5 5.2 330 / 131018.4 18.5 18.9
2017-Jul-18 05:00S 30°00' E 173°18'5 5.2 330 / 181018.2 18.6 18.9
2017-Jul-18 04:00S 30°00' E 173°12'5 5.2 330 / 181018.2 18.7 18.9
2017-Jul-18 03:00S 30°00' E 173°18'5 5.2 320 / 181018.4 18.8 18.9
2017-Jul-18 02:00S 30°00' E 173°12'5 5.2 330 / 151018.6 19.4 18.9
2017-Jul-18 01:00S 30°00' E 173°06'0 0.0 330 / 211019.5 19.4 19.0
2017-Jul-18 00:00S 30°00' E 173°06'0 0.0 330 / 211020.8 19.6 19.0
2017-Jul-17 23:00S 30°00' E 173°06'0 0.0 340 / 171021.4 19.4 19.0
2017-Jul-17 22:00S 30°00' E 173°06'5 5.2 350 / 191021.8 18.8 18.9
2017-Jul-17 21:00S 30°00' E 173°00'5 5.2 340 / 191021.3 18.7 19.0
2017-Jul-17 20:00S 30°00' E 172°54'0 0.0 350 / 171021.1 17.5 19.0
2017-Jul-17 19:00S 30°00' E 172°54'0 0.0 360 / 171020.9 17.0 19.0
2017-Jul-17 18:00S 30°00' E 172°54'5 5.2 010 / 221020.6 17.3 19.0
2017-Jul-17 17:00S 30°00' E 172°48'5 5.2 010 / 231020.4 17.6 19.0
2017-Jul-17 16:00S 30°00' E 172°42'0 0.0 020 / 201021.1 17.9 19.0
2017-Jul-17 15:00S 30°00' E 172°42'0 0.0 020 / 191021.7 17.8 19.0
2017-Jul-17 14:00S 30°00' E 172°42'0 0.0 020 / 211022.1 17.5 19.0
2017-Jul-17 13:00S 30°00' E 172°42'1010.4 020 / 241022.3 18.1 19.0
2017-Jul-17 12:00S 30°00' E 172°30'5 5.2 030 / 201023.0 17.2 19.1
2017-Jul-17 11:00S 30°00' E 172°24'5 5.2 030 / 201023.2 18.3 19.1
2017-Jul-17 10:00S 30°00' E 172°30'5 5.2 030 / 191023.5 17.6 19.1
2017-Jul-17 09:00S 30°00' E 172°24'1010.4 030 / 211023.6 17.1 19.0
2017-Jul-17 08:00S 30°00' E 172°12'1010.4 030 / 221023.5 17.7 18.9
2017-Jul-17 07:00S 30°00' E 172°00'5 5.2 030 / 231023.1 18.2 19.0
2017-Jul-17 06:00S 30°00' E 171°54'0 0.0 040 / 201023.0 18.0 19.0
2017-Jul-17 05:00S 30°00' E 171°54'0 0.0 040 / 201023.0 18.2 19.1
2017-Jul-17 04:00S 30°00' E 171°54'5 5.2 040 / 191023.2 18.2 19.1
2017-Jul-17 03:00S 30°00' E 171°48'1010.4 040 / 201023.4 18.0 19.2
2017-Jul-17 02:00S 30°00' E 171°36'5 5.2 040 / 231023.9 18.2 19.3
2017-Jul-17 01:00S 30°00' E 171°30'5 5.2 040 / 231024.8 18.3 19.2
2017-Jul-17 00:00S 30°00' E 171°24'0 0.0 040 / 201025.8 18.1 19.2
2017-Jul-16 23:00S 30°00' E 171°24'0 0.0 040 / 191026.5 17.9 19.1
2017-Jul-16 22:00S 30°00' E 171°24'0 0.0 040 / 191026.5 17.7 19.1
2017-Jul-16 21:00S 30°00' E 171°24'5 5.2 040 / 201026.1 17.5 19.0
2017-Jul-16 20:00S 30°00' E 171°18'0 0.0 040 / 171025.8 17.4 19.0
2017-Jul-16 19:00S 30°00' E 171°18'0 0.0 040 / 151025.4 17.3 19.0
2017-Jul-16 18:00S 30°00' E 171°18'0 0.0 040 / 101025.6 17.3 19.0
2017-Jul-16 17:00S 30°00' E 171°18'5 5.2 030 / 111026.0 17.2 19.1
2017-Jul-16 16:00S 30°00' E 171°12'0 0.0 020 / 91026.4 17.2 19.2
2017-Jul-16 15:00S 30°00' E 171°12'5 5.2 020 / 91027.0 17.0 19.2
2017-Jul-16 14:00S 30°00' E 171°06'0 0.0 040 / 121027.2 16.8 19.3
2017-Jul-16 13:00S 30°00' E 171°06'0 0.0 050 / 111027.3 16.8 19.3
2017-Jul-16 12:00S 30°00' E 171°06'0 0.0 060 / 111027.4 17.0 19.3
2017-Jul-16 11:00S 30°00' E 171°06'5 5.2 040 / 131027.4 17.1 19.3
2017-Jul-16 10:00S 30°00' E 171°00'5 5.2 040 / 91027.5 17.1 19.3
2017-Jul-16 09:00S 30°00' E 170°54'0 0.0 040 / 91027.5 17.1 19.3
2017-Jul-16 08:00S 30°00' E 170°54'0 0.0 060 / 71027.3 16.9 19.3
2017-Jul-16 07:00S 30°00' E 170°54'1010.4 030 / 91026.8 16.8 19.3
2017-Jul-16 06:00S 30°00' E 170°42'1010.4 040 / 91026.7 16.8 19.4
2017-Jul-16 05:00S 30°00' E 170°30'5 5.2 040 / 71026.3 17.1 19.3
2017-Jul-16 04:00S 30°00' E 170°24'0 0.0 070 / 81026.2 17.1 19.3
2017-Jul-16 03:00S 30°00' E 170°24'0 0.0 030 / 81026.2 17.4 19.4
2017-Jul-16 02:00S 30°00' E 170°24'5 5.2 040 / 91026.6 17.5 19.4
2017-Jul-16 01:00S 30°00' E 170°18'5 5.2 030 / 41027.5 17.1 19.3
2017-Jul-16 00:00S 30°00' E 170°12'0 0.0 040 / 41028.3 17.1 19.4
2017-Jul-15 23:00S 30°00' E 170°12'0 0.0 040 / 71028.9 16.9 19.4
2017-Jul-15 22:00S 30°00' E 170°12'5 5.2 040 / 71028.8 16.8 19.4
2017-Jul-15 21:00S 30°00' E 170°06'5 5.2 030 / 81028.1 16.7 19.4
2017-Jul-15 20:00S 30°00' E 170°00'0 0.0 050 / 91027.1 16.7 19.6
2017-Jul-15 19:00S 30°00' E 170°00'0 0.0 080 / 31026.5 16.3 19.6
2017-Jul-15 18:00S 30°00' E 170°00'5 5.2 350 / 21026.2 15.9 19.6
2017-Jul-15 17:00S 30°00' E 169°54'1010.4 030 / 61026.5 15.9 19.6
2017-Jul-15 16:00S 30°00' E 169°42'1010.4 090 / 71026.7 16.5 19.5
2017-Jul-15 15:00S 30°00' E 169°30'5 5.2 080 / 81026.9 16.6 19.5
2017-Jul-15 14:00S 30°00' E 169°24'0 0.0 070 / 51027.2 16.6 19.5
2017-Jul-15 13:00S 30°00' E 169°24'0 0.0 100 / 71027.4 16.4 19.5
2017-Jul-15 12:00S 30°00' E 169°24'5 5.2 140 / 61027.4 16.3 19.5
2017-Jul-15 11:00S 30°00' E 169°18'1010.4 140 / 71027.3 16.3 19.6
2017-Jul-15 10:00S 30°00' E 169°06'5 5.2 140 / 71027.2 16.3 19.8
2017-Jul-15 09:00S 30°00' E 169°00'5 5.2 140 / 61027.3 16.2 19.9
2017-Jul-15 08:00S 30°00' E 168°54'0 0.0 130 / 71027.0 16.3 19.9
2017-Jul-15 07:00S 30°00' E 168°54'0 0.0 150 / 71026.7 16.5 19.9
2017-Jul-15 06:00S 30°00' E 168°54'5 5.2 160 / 61026.4 16.7 19.9
2017-Jul-15 05:00S 30°00' E 168°48'1010.4 160 / 51026.1 16.6 19.9
2017-Jul-15 04:00S 30°00' E 168°36'5 5.2 150 / 41025.8 16.6 19.9
2017-Jul-15 03:00S 30°00' E 168°30'5 5.2 140 / 51025.8 17.5 19.7
2017-Jul-15 02:00S 30°00' E 168°24'0 0.0 150 / 61026.4 17.3 19.6
2017-Jul-15 01:00S 30°00' E 168°24'0 0.0 150 / 81027.1 17.5 19.6
2017-Jul-15 00:00S 30°00' E 168°24'1010.4 160 / 91027.6 16.9 19.6
2017-Jul-14 23:00S 30°00' E 168°12'0 0.0 170 / 81027.9 16.7 19.5
2017-Jul-14 22:00S 30°00' E 168°12'0 0.0 160 / 91027.6 16.6 19.5
2017-Jul-14 21:00S 30°00' E 168°12'0 0.0 150 / 91027.2 16.4 19.5
2017-Jul-14 20:00S 30°00' E 168°12'0 0.0 160 / 101026.8 16.2 19.5
2017-Jul-14 19:00S 30°00' E 168°12'5 5.2 160 / 101026.2 16.1 19.5
2017-Jul-14 18:00S 30°00' E 168°06'0 0.0 170 / 101025.8 16.1 19.5
2017-Jul-14 17:00S 30°00' E 168°06'0 0.0 160 / 131025.4 16.1 19.5
2017-Jul-14 16:00S 30°00' E 168°06'0 0.0 170 / 131025.9 16.2 19.5
2017-Jul-14 15:00S 30°00' E 168°06'5 5.2 180 / 131026.0 16.1 19.5
2017-Jul-14 14:00S 30°00' E 168°00'0 0.0 160 / 111025.9 15.4 19.5
2017-Jul-14 13:00S 30°00' E 168°00'5 5.2 160 / 131025.8 15.6 19.5
2017-Jul-14 12:00S 30°00' E 167°54'1010.4 190 / 131025.6 16.0 19.5
2017-Jul-14 11:00S 30°00' E 167°42'0 0.0 200 / 101025.6 15.6 19.6
2017-Jul-14 10:00S 30°00' E 167°42'0 0.0 190 / 121025.7 16.1 19.6
2017-Jul-14 09:00S 30°00' E 167°42'1010.4 190 / 131025.3 16.1 19.6
2017-Jul-14 08:00S 30°00' E 167°30'0 0.0 190 / 121024.7 16.0 19.5
2017-Jul-14 07:00S 30°00' E 167°30'5 5.2 190 / 131024.4 15.8 19.6
2017-Jul-14 06:00S 30°00' E 167°24'5 5.2 190 / 141023.7 16.1 19.6
2017-Jul-14 05:00S 30°00' E 167°18'5 5.2 190 / 151023.4 16.0 19.6
2017-Jul-14 04:00S 30°00' E 167°12'0 0.0 190 / 131023.5 16.4 19.6
2017-Jul-14 03:00S 30°00' E 167°12'0 0.0 200 / 131023.4 16.3 19.6
2017-Jul-14 02:00S 30°00' E 167°12'5 5.2 200 / 111023.5 15.9 19.6
2017-Jul-14 01:00S 30°00' E 167°06'   190 / 131023.9 15.6 19.6
Track history (hours):
 
Tides and Currents Weather Stations Pressure Air Temp Water Temp Dewpoint Dewpoint Depression Visibility Wind Speed Wind Dir Waves Ship Positions

Oceanographic research ship Nathaniel B. Palmer (USA)

Contact: Ethan Norris, ethan.norris.contractor@usap.gov

Detailed information on ship capabilities available from University of Delaware's Ocean Information Center and ARCUS's ALIAS (Arctic Logistics Information and Support) project.

Owner: OFFSHORE SERVICE VESSELS, GALLIANO, LA. More information available from US FCC via Universal Licensing System and Coast Guard Vessel Documentation Center.

Last reported at 2017-Jul-24 01:00 UTC. Time now 2017-Jul-24 02:27 UTC.
Position S 31°06' E 177°30'.

Type: Other ship. MMSI: 366610000.

Wind from 230 at 17 knots

Barometer 1013.7 mb
Air temperature 16.4 ° C
Water temperature 18.7 ° C

Date/timePositionNaut miles runAvg speedWind from/ knotsBaromVisibWave heightAir tempDewpointWater temp
2017-Jul-24 01:00S 31°06' E 177°30'8 7.9 230 / 171013.7 16.4 18.7
2017-Jul-24 00:00S 31°00' E 177°24'8 7.9 250 / 171014.6 16.6 18.8
2017-Jul-23 23:00S 30°54' E 177°18'0 0.0 240 / 191015.2 17.1 18.8
2017-Jul-23 22:00S 30°54' E 177°18'0 0.0 230 / 201015.1 17.3 18.8
2017-Jul-23 21:00S 30°54' E 177°18'0 0.0 230 / 191014.7 15.8 18.8
2017-Jul-23 20:00S 30°54' E 177°18'1212.0 240 / 161014.0 16.0 18.8
2017-Jul-23 19:00S 31°06' E 177°18'8 7.9 240 / 171013.3 16.4 18.6
2017-Jul-23 18:00S 31°12' E 177°12'1313.0 240 / 201012.7 16.6 18.6
2017-Jul-23 17:00S 31°24' E 177°06'8 7.9 240 / 221012.4 16.4 18.9
2017-Jul-23 16:00S 31°30' E 177°00'1313.0 240 / 231012.4 16.5 18.8
2017-Jul-23 15:00S 31°42' E 176°54'1313.0 250 / 191012.4 16.5 18.7
2017-Jul-23 14:00S 31°54' E 176°48'8 7.9 240 / 171012.2 16.4 18.9
2017-Jul-23 13:00S 32°00' E 176°42'1313.0 250 / 201012.1 15.9 18.1
2017-Jul-23 12:00S 32°12' E 176°36'1313.0 250 / 191011.9 15.8 17.6
2017-Jul-23 11:00S 32°24' E 176°30'8 7.9 250 / 191011.7 15.7 17.6
2017-Jul-23 10:00S 32°30' E 176°24'1313.0 240 / 191011.4 15.8 17.6
2017-Jul-23 09:00S 32°42' E 176°18'8 7.8 250 / 201010.8 15.9 17.6
2017-Jul-23 08:00S 32°48' E 176°12'1313.0 240 / 181010.2 15.7 17.5
2017-Jul-23 07:00S 33°00' E 176°06'1313.0 250 / 171009.7 15.4 17.0
2017-Jul-23 06:00S 33°12' E 176°00'8 7.8 240 / 201009.0 15.1 17.2
2017-Jul-23 05:00S 33°18' E 175°54'1313.0 250 / 231008.4 15.6 17.2
2017-Jul-23 04:00S 33°30' E 175°48'8 7.8 250 / 221008.1 15.7 17.1
2017-Jul-23 03:00S 33°36' E 175°42'1313.0 250 / 201007.9 15.7 17.2
2017-Jul-23 02:00S 33°48' E 175°36'8 7.8 240 / 171008.0 15.8 17.1
2017-Jul-23 01:00S 33°54' E 175°30'8 7.8 230 / 131008.4 15.3 17.1
2017-Jul-23 00:00S 34°00' E 175°24'0 0.0 240 / 161008.5 15.5 17.1
2017-Jul-22 23:00S 34°00' E 175°24'8 7.8 250 / 181008.3 15.9 17.1
2017-Jul-22 22:00S 33°54' E 175°30'8 7.8 240 / 201007.9 15.8 17.1
2017-Jul-22 21:00S 33°48' E 175°36'1313.0 250 / 221007.1 15.3 17.1
2017-Jul-22 20:00S 33°36' E 175°42'1313.0 250 / 231006.3 15.7 17.2
2017-Jul-22 19:00S 33°24' E 175°36'8 7.8 260 / 241005.6 15.5 17.1
2017-Jul-22 18:00S 33°18' E 175°42'8 7.8 260 / 261005.0 15.7 17.1
2017-Jul-22 17:00S 33°12' E 175°48'1313.0 260 / 261004.6 15.4 17.3
2017-Jul-22 16:00S 33°00' E 175°54'8 7.8 260 / 261004.6 15.7 17.0
2017-Jul-22 15:00S 32°54' E 176°00'1313.0 270 / 281004.6 16.0 17.3
2017-Jul-22 14:00S 32°42' E 176°06'8 7.8 270 / 291004.5 15.7 17.5
2017-Jul-22 13:00S 32°36' E 176°12'8 7.8 270 / 291004.4 16.1 17.7
2017-Jul-22 12:00S 32°30' E 176°18'1313.0 270 / 271004.4 16.6 17.6
2017-Jul-22 11:00S 32°18' E 176°24'8 7.9 280 / 311004.1 17.0 17.6
2017-Jul-22 10:00S 32°12' E 176°30'6 6.0 280 / 331003.9 16.9 17.7
2017-Jul-22 09:00S 32°06' E 176°30'1313.0 280 / 321003.7 17.6 18.7
2017-Jul-22 08:00S 31°54' E 176°36'8 7.9 290 / 331003.6 17.6 18.9
2017-Jul-22 07:00S 31°48' E 176°42'8 7.9 290 / 351003.2 17.9 18.8
2017-Jul-22 06:00S 31°42' E 176°48'8 7.9 290 / 351003.0 18.0 18.9
2017-Jul-22 05:00S 31°36' E 176°54'1212.0 290 / 361002.9 18.3 19.0
2017-Jul-22 04:00S 31°24' E 176°54'8 7.9 290 / 351003.3 18.3 19.0
2017-Jul-22 03:00S 31°18' E 177°00'8 7.9 290 / 341003.8 18.5 18.9
2017-Jul-22 02:00S 31°12' E 177°06'1313.1 290 / 311004.6 18.1 18.4
2017-Jul-22 01:00S 31°00' E 177°12'8 7.9 290 / 331005.5 18.7 18.6
2017-Jul-22 00:00S 30°54' E 177°18'0 0.0 290 / 321006.7 18.8 18.9
2017-Jul-21 23:00S 30°54' E 177°18'0 0.0 290 / 371007.3 19.2 18.9
2017-Jul-21 22:00S 30°54' E 177°18'0 0.0 300 / 321006.4 18.6 18.9
2017-Jul-21 21:00S 30°54' E 177°18'0 0.0 300 / 311006.0 18.5 18.9
2017-Jul-21 20:00S 30°54' E 177°18'0 0.0 300 / 341005.9 17.9 18.9
2017-Jul-21 19:00S 30°54' E 177°18'0 0.0 310 / 311005.3 18.0 18.9
2017-Jul-21 18:00S 30°54' E 177°18'5 5.1 310 / 331005.2 17.2 18.9
2017-Jul-21 17:00S 30°54' E 177°24'0 0.0 300 / 351005.1 18.3 18.9
2017-Jul-21 16:00S 30°54' E 177°24'8 7.9 300 / 321005.3 18.6 18.9
2017-Jul-21 15:00S 31°00' E 177°30'8 7.9 290 / 321005.5 18.4 18.9
2017-Jul-21 14:00S 30°54' E 177°24'5 5.1 300 / 311005.9 17.9 18.9
2017-Jul-21 13:00S 30°54' E 177°18'0 0.0 290 / 311006.3 16.1 18.9
2017-Jul-21 12:00S 30°54' E 177°18'8 7.9 290 / 301006.2 18.0 18.8
2017-Jul-21 11:00S 30°48' E 177°12'6 6.0 300 / 281006.1 18.6 18.9
2017-Jul-21 10:00S 30°42' E 177°12'5 5.2 300 / 251006.4 17.9 18.9
2017-Jul-21 09:00S 30°42' E 177°06'8 7.9 290 / 301006.3 17.3 19.0
2017-Jul-21 08:00S 30°36' E 177°00'8 7.9 310 / 311005.8 19.0 19.0
2017-Jul-21 07:00S 30°30' E 176°54'0 0.0 310 / 351005.6 19.2 19.1
2017-Jul-21 06:00S 30°30' E 176°54'0 0.0 320 / 351005.6 19.1 19.1
2017-Jul-21 05:00S 30°30' E 176°54'0 0.0 310 / 331005.6 19.2 19.1
2017-Jul-21 04:00S 30°30' E 176°54'0 0.0 310 / 341005.8 19.5 19.1
2017-Jul-21 03:00S 30°30' E 176°54'0 0.0 310 / 331006.0 19.5 19.1
2017-Jul-21 02:00S 30°30' E 176°54'5 5.2 310 / 301006.5 19.6 19.1
2017-Jul-21 01:00S 30°30' E 176°48'6 6.0 310 / 281007.3 19.8 19.1
2017-Jul-21 00:00S 30°24' E 176°48'8 7.9 300 / 291008.6 19.6 19.1
2017-Jul-20 23:00S 30°30' E 176°54'0 0.0 300 / 281008.9 19.3 19.1
2017-Jul-20 22:00S 30°30' E 176°54'0 0.0 300 / 281008.5 19.3 19.1
2017-Jul-20 21:00S 30°30' E 176°54'5 5.2 300 / 231008.1 18.4 19.0
2017-Jul-20 20:00S 30°30' E 176°48'5 5.2 290 / 301007.2 18.5 19.0
2017-Jul-20 19:00S 30°30' E 176°54'6 6.0 300 / 321006.3 18.4 19.0
2017-Jul-20 18:00S 30°24' E 176°54'5 5.2 300 / 311005.1 18.4 19.0
2017-Jul-20 17:00S 30°24' E 176°48'5 5.2 300 / 301004.8 18.6 19.0
2017-Jul-20 16:00S 30°24' E 176°54'6 6.0 300 / 311005.0 18.4 19.0
2017-Jul-20 15:00S 30°30' E 176°54'6 6.0 290 / 321005.0 18.5 19.0
2017-Jul-20 14:00S 30°24' E 176°54'5 5.2 300 / 321004.5 18.4 19.0
2017-Jul-20 13:00S 30°24' E 176°48'0 0.0 290 / 311004.2 18.5 19.0
2017-Jul-20 12:00S 30°24' E 176°48'8 7.9 290 / 311003.8 18.7 19.0
2017-Jul-20 11:00S 30°18' E 176°42'0 0.0 300 / 321003.6 18.8 19.0
2017-Jul-20 10:00S 30°18' E 176°42'0 0.0 300 / 361003.7 18.7 19.0
2017-Jul-20 09:00S 30°18' E 176°42'8 7.9 290 / 371002.9 18.9 19.0
2017-Jul-20 08:00S 30°24' E 176°48'0 0.0 310 / 371002.3 18.2 19.1
2017-Jul-20 07:00S 30°24' E 176°48'0 0.0 320 / 351002.0 16.7 19.1
2017-Jul-20 06:00S 30°24' E 176°48'0 0.0 300 / 341002.8 16.3 19.1
2017-Jul-20 05:00S 30°24' E 176°48'8 7.9 280 / 381001.6 16.3 19.1
2017-Jul-20 04:00S 30°18' E 176°42'0 0.0 270 / 27999.9 17.0 19.0
2017-Jul-20 03:00S 30°18' E 176°42'8 7.9 340 / 31999.6 19.3 19.2
2017-Jul-20 02:00S 30°12' E 176°36'8 7.9 360 / 381000.2 21.1 19.4
2017-Jul-20 01:00S 30°06' E 176°30'6 6.0 350 / 281002.3 20.0 19.5
2017-Jul-20 00:00S 30°00' E 176°30'0 0.0 020 / 331003.9 19.5 19.6
2017-Jul-19 23:00S 30°00' E 176°30'0 0.0 020 / 331006.3 19.2 19.6
2017-Jul-19 22:00S 30°00' E 176°30'0 0.0 020 / 331007.6 19.5 19.6
2017-Jul-19 21:00S 30°00' E 176°30'1010.4 020 / 331008.0 20.0 19.5
2017-Jul-19 20:00S 30°00' E 176°18'5 5.2 020 / 371007.9 19.6 19.3
2017-Jul-19 19:00S 30°00' E 176°12'1010.4 010 / 361008.2 18.8 19.2
2017-Jul-19 18:00S 30°00' E 176°00'5 5.2 010 / 301008.5 19.1 19.0
2017-Jul-19 17:00S 30°00' E 175°54'0 0.0 010 / 281009.4 19.2 18.7
2017-Jul-19 16:00S 30°00' E 175°54'0 0.0 010 / 281010.2 19.2 18.7
2017-Jul-19 15:00S 30°00' E 175°54'0 0.0 010 / 281010.9 19.2 18.7
2017-Jul-19 14:00S 30°00' E 175°54'1212.0 010 / 321011.0 19.2 18.7
2017-Jul-19 13:00S 30°06' E 175°42'8 7.9 010 / 311011.1 18.9 18.7
2017-Jul-19 12:00S 30°00' E 175°36'5 5.2 010 / 261011.9 18.9 18.4
2017-Jul-19 11:00S 30°00' E 175°30'5 5.2 030 / 151013.2 18.5 18.5
2017-Jul-19 10:00S 30°00' E 175°24'0 0.0 020 / 171013.9 18.4 18.6
2017-Jul-19 09:00S 30°00' E 175°24'5 5.2 010 / 171014.2 18.9 18.6
2017-Jul-19 08:00S 30°00' E 175°30'5 5.2 010 / 171014.0 18.8 18.6
2017-Jul-19 07:00S 30°00' E 175°24'1010.4 030 / 151014.1 18.5 18.6
2017-Jul-19 06:00S 30°00' E 175°12'1010.4 030 / 151014.1 18.4 18.6
2017-Jul-19 05:00S 30°00' E 175°00'5 5.2 090 / 101014.3 18.1 18.6
2017-Jul-19 04:00S 30°00' E 174°54'0 0.0 100 / 81014.7 17.9 18.7
2017-Jul-19 03:00S 30°00' E 174°54'0 0.0 110 / 61015.2 17.6 18.7
2017-Jul-19 02:00S 30°00' E 174°54'0 0.0 090 / 41016.0 17.4 18.6
2017-Jul-19 01:00S 30°00' E 174°54'5 5.2 090 / 41017.0 17.7 18.6
2017-Jul-19 00:00S 30°00' E 174°48'1010.4 130 / 31018.2 17.5 18.2
2017-Jul-18 23:00S 30°00' E 174°36'5 5.2 120 / 21018.9 17.4 18.1
2017-Jul-18 22:00S 30°00' E 174°30'5 5.2 130 / 21018.8 18.2 18.0
2017-Jul-18 21:00S 30°00' E 174°24'0 0.0 240 / 21018.6 18.6 18.0
2017-Jul-18 20:00S 30°00' E 174°24'0 0.0 230 / 41018.2 19.0 18.0
2017-Jul-18 19:00S 30°00' E 174°24'5 5.2 240 / 61017.8 17.8 18.0
2017-Jul-18 18:00S 30°00' E 174°18'1010.4 260 / 81017.6 18.1 18.6
2017-Jul-18 17:00S 30°00' E 174°06'5 5.2 280 / 81017.5 18.0 19.0
2017-Jul-18 16:00S 30°00' E 174°00'0 0.0 270 / 91017.8 17.8 19.0
2017-Jul-18 15:00S 30°00' E 174°00'0 0.0 290 / 91018.0 17.9 19.0
2017-Jul-18 14:00S 30°00' E 174°00'5 5.2 290 / 91018.4 17.9 19.0
2017-Jul-18 13:00S 30°00' E 173°54'1010.4 300 / 61018.7 17.8 18.9
2017-Jul-18 12:00S 30°00' E 173°42'1010.4 340 / 61019.1 17.7 19.0
2017-Jul-18 11:00S 30°00' E 173°30'5 5.2 350 / 51019.1 16.7 18.9
2017-Jul-18 10:00S 30°00' E 173°24'0 0.0 320 / 31019.3 16.1 18.9
2017-Jul-18 09:00S 30°00' E 173°24'5 5.2 310 / 101019.6 16.6 18.9
2017-Jul-18 08:00S 30°00' E 173°30'5 5.2 300 / 141019.4 17.4 18.9
2017-Jul-18 07:00S 30°00' E 173°24'0 0.0 320 / 151019.1 18.4 19.0
2017-Jul-18 06:00S 30°00' E 173°24'5 5.2 330 / 131018.4 18.5 18.9
2017-Jul-18 05:00S 30°00' E 173°18'5 5.2 330 / 181018.2 18.6 18.9
2017-Jul-18 04:00S 30°00' E 173°12'5 5.2 330 / 181018.2 18.7 18.9
2017-Jul-18 03:00S 30°00' E 173°18'5 5.2 320 / 181018.4 18.8 18.9
2017-Jul-18 02:00S 30°00' E 173°12'5 5.2 330 / 151018.6 19.4 18.9
2017-Jul-18 01:00S 30°00' E 173°06'0 0.0 330 / 211019.5 19.4 19.0
2017-Jul-18 00:00S 30°00' E 173°06'0 0.0 330 / 211020.8 19.6 19.0
2017-Jul-17 23:00S 30°00' E 173°06'0 0.0 340 / 171021.4 19.4 19.0
2017-Jul-17 22:00S 30°00' E 173°06'5 5.2 350 / 191021.8 18.8 18.9
2017-Jul-17 21:00S 30°00' E 173°00'5 5.2 340 / 191021.3 18.7 19.0
2017-Jul-17 20:00S 30°00' E 172°54'0 0.0 350 / 171021.1 17.5 19.0
2017-Jul-17 19:00S 30°00' E 172°54'0 0.0 360 / 171020.9 17.0 19.0
2017-Jul-17 18:00S 30°00' E 172°54'5 5.2 010 / 221020.6 17.3 19.0
2017-Jul-17 17:00S 30°00' E 172°48'5 5.2 010 / 231020.4 17.6 19.0
2017-Jul-17 16:00S 30°00' E 172°42'0 0.0 020 / 201021.1 17.9 19.0
2017-Jul-17 15:00S 30°00' E 172°42'0 0.0 020 / 191021.7 17.8 19.0
2017-Jul-17 14:00S 30°00' E 172°42'0 0.0 020 / 211022.1 17.5 19.0
2017-Jul-17 13:00S 30°00' E 172°42'1010.4 020 / 241022.3 18.1 19.0
2017-Jul-17 12:00S 30°00' E 172°30'5 5.2 030 / 201023.0 17.2 19.1
2017-Jul-17 11:00S 30°00' E 172°24'5 5.2 030 / 201023.2 18.3 19.1
2017-Jul-17 10:00S 30°00' E 172°30'5 5.2 030 / 191023.5 17.6 19.1
2017-Jul-17 09:00S 30°00' E 172°24'1010.4 030 / 211023.6 17.1 19.0
2017-Jul-17 08:00S 30°00' E 172°12'1010.4 030 / 221023.5 17.7 18.9
2017-Jul-17 07:00S 30°00' E 172°00'5 5.2 030 / 231023.1 18.2 19.0
2017-Jul-17 06:00S 30°00' E 171°54'0 0.0 040 / 201023.0 18.0 19.0
2017-Jul-17 05:00S 30°00' E 171°54'0 0.0 040 / 201023.0 18.2 19.1
2017-Jul-17 04:00S 30°00' E 171°54'5 5.2 040 / 191023.2 18.2 19.1
2017-Jul-17 03:00S 30°00' E 171°48'1010.4 040 / 201023.4 18.0 19.2
2017-Jul-17 02:00S 30°00' E 171°36'5 5.2 040 / 231023.9 18.2 19.3
2017-Jul-17 01:00S 30°00' E 171°30'5 5.2 040 / 231024.8 18.3 19.2
2017-Jul-17 00:00S 30°00' E 171°24'0 0.0 040 / 201025.8 18.1 19.2
2017-Jul-16 23:00S 30°00' E 171°24'0 0.0 040 / 191026.5 17.9 19.1
2017-Jul-16 22:00S 30°00' E 171°24'0 0.0 040 / 191026.5 17.7 19.1
2017-Jul-16 21:00S 30°00' E 171°24'5 5.2 040 / 201026.1 17.5 19.0
2017-Jul-16 20:00S 30°00' E 171°18'0 0.0 040 / 171025.8 17.4 19.0
2017-Jul-16 19:00S 30°00' E 171°18'0 0.0 040 / 151025.4 17.3 19.0
2017-Jul-16 18:00S 30°00' E 171°18'0 0.0 040 / 101025.6 17.3 19.0
2017-Jul-16 17:00S 30°00' E 171°18'5 5.2 030 / 111026.0 17.2 19.1
2017-Jul-16 16:00S 30°00' E 171°12'0 0.0 020 / 91026.4 17.2 19.2
2017-Jul-16 15:00S 30°00' E 171°12'5 5.2 020 / 91027.0 17.0 19.2
2017-Jul-16 14:00S 30°00' E 171°06'0 0.0 040 / 121027.2 16.8 19.3
2017-Jul-16 13:00S 30°00' E 171°06'0 0.0 050 / 111027.3 16.8 19.3
2017-Jul-16 12:00S 30°00' E 171°06'0 0.0 060 / 111027.4 17.0 19.3
2017-Jul-16 11:00S 30°00' E 171°06'5 5.2 040 / 131027.4 17.1 19.3
2017-Jul-16 10:00S 30°00' E 171°00'5 5.2 040 / 91027.5 17.1 19.3
2017-Jul-16 09:00S 30°00' E 170°54'0 0.0 040 / 91027.5 17.1 19.3
2017-Jul-16 08:00S 30°00' E 170°54'0 0.0 060 / 71027.3 16.9 19.3
2017-Jul-16 07:00S 30°00' E 170°54'1010.4 030 / 91026.8 16.8 19.3
2017-Jul-16 06:00S 30°00' E 170°42'1010.4 040 / 91026.7 16.8 19.4
2017-Jul-16 05:00S 30°00' E 170°30'5 5.2 040 / 71026.3 17.1 19.3
2017-Jul-16 04:00S 30°00' E 170°24'0 0.0 070 / 81026.2 17.1 19.3
2017-Jul-16 03:00S 30°00' E 170°24'0 0.0 030 / 81026.2 17.4 19.4
2017-Jul-16 02:00S 30°00' E 170°24'5 5.2 040 / 91026.6 17.5 19.4
2017-Jul-16 01:00S 30°00' E 170°18'5 5.2 030 / 41027.5 17.1 19.3
2017-Jul-16 00:00S 30°00' E 170°12'0 0.0 040 / 41028.3 17.1 19.4
2017-Jul-15 23:00S 30°00' E 170°12'0 0.0 040 / 71028.9 16.9 19.4
2017-Jul-15 22:00S 30°00' E 170°12'5 5.2 040 / 71028.8 16.8 19.4
2017-Jul-15 21:00S 30°00' E 170°06'5 5.2 030 / 81028.1 16.7 19.4
2017-Jul-15 20:00S 30°00' E 170°00'0 0.0 050 / 91027.1 16.7 19.6
2017-Jul-15 19:00S 30°00' E 170°00'0 0.0 080 / 31026.5 16.3 19.6
2017-Jul-15 18:00S 30°00' E 170°00'5 5.2 350 / 21026.2 15.9 19.6
2017-Jul-15 17:00S 30°00' E 169°54'1010.4 030 / 61026.5 15.9 19.6
2017-Jul-15 16:00S 30°00' E 169°42'1010.4 090 / 71026.7 16.5 19.5
2017-Jul-15 15:00S 30°00' E 169°30'5 5.2 080 / 81026.9 16.6 19.5
2017-Jul-15 14:00S 30°00' E 169°24'0 0.0 070 / 51027.2 16.6 19.5
2017-Jul-15 13:00S 30°00' E 169°24'0 0.0 100 / 71027.4 16.4 19.5
2017-Jul-15 12:00S 30°00' E 169°24'5 5.2 140 / 61027.4 16.3 19.5
2017-Jul-15 11:00S 30°00' E 169°18'1010.4 140 / 71027.3 16.3 19.6
2017-Jul-15 10:00S 30°00' E 169°06'5 5.2 140 / 71027.2 16.3 19.8
2017-Jul-15 09:00S 30°00' E 169°00'5 5.2 140 / 61027.3 16.2 19.9
2017-Jul-15 08:00S 30°00' E 168°54'0 0.0 130 / 71027.0 16.3 19.9
2017-Jul-15 07:00S 30°00' E 168°54'0 0.0 150 / 71026.7 16.5 19.9
2017-Jul-15 06:00S 30°00' E 168°54'5 5.2 160 / 61026.4 16.7 19.9
2017-Jul-15 05:00S 30°00' E 168°48'1010.4 160 / 51026.1 16.6 19.9
2017-Jul-15 04:00S 30°00' E 168°36'5 5.2 150 / 41025.8 16.6 19.9
2017-Jul-15 03:00S 30°00' E 168°30'5 5.2 140 / 51025.8 17.5 19.7
2017-Jul-15 02:00S 30°00' E 168°24'0 0.0 150 / 61026.4 17.3 19.6
2017-Jul-15 01:00S 30°00' E 168°24'0 0.0 150 / 81027.1 17.5 19.6
2017-Jul-15 00:00S 30°00' E 168°24'1010.4 160 / 91027.6 16.9 19.6
2017-Jul-14 23:00S 30°00' E 168°12'0 0.0 170 / 81027.9 16.7 19.5
2017-Jul-14 22:00S 30°00' E 168°12'0 0.0 160 / 91027.6 16.6 19.5
2017-Jul-14 21:00S 30°00' E 168°12'0 0.0 150 / 91027.2 16.4 19.5
2017-Jul-14 20:00S 30°00' E 168°12'0 0.0 160 / 101026.8 16.2 19.5
2017-Jul-14 19:00S 30°00' E 168°12'5 5.2 160 / 101026.2 16.1 19.5
2017-Jul-14 18:00S 30°00' E 168°06'0 0.0 170 / 101025.8 16.1 19.5
2017-Jul-14 17:00S 30°00' E 168°06'0 0.0 160 / 131025.4 16.1 19.5
2017-Jul-14 16:00S 30°00' E 168°06'0 0.0 170 / 131025.9 16.2 19.5
2017-Jul-14 15:00S 30°00' E 168°06'5 5.2 180 / 131026.0 16.1 19.5
2017-Jul-14 14:00S 30°00' E 168°00'0 0.0 160 / 111025.9 15.4 19.5
2017-Jul-14 13:00S 30°00' E 168°00'5 5.2 160 / 131025.8 15.6 19.5
2017-Jul-14 12:00S 30°00' E 167°54'1010.4 190 / 131025.6 16.0 19.5
2017-Jul-14 11:00S 30°00' E 167°42'0 0.0 200 / 101025.6 15.6 19.6
2017-Jul-14 10:00S 30°00' E 167°42'0 0.0 190 / 121025.7 16.1 19.6
2017-Jul-14 09:00S 30°00' E 167°42'1010.4 190 / 131025.3 16.1 19.6
2017-Jul-14 08:00S 30°00' E 167°30'0 0.0 190 / 121024.7 16.0 19.5
2017-Jul-14 07:00S 30°00' E 167°30'5 5.2 190 / 131024.4 15.8 19.6
2017-Jul-14 06:00S 30°00' E 167°24'5 5.2 190 / 141023.7 16.1 19.6
2017-Jul-14 05:00S 30°00' E 167°18'5 5.2 190 / 151023.4 16.0 19.6
2017-Jul-14 04:00S 30°00' E 167°12'0 0.0 190 / 131023.5 16.4 19.6
2017-Jul-14 03:00S 30°00' E 167°12'0 0.0 200 / 131023.4 16.3 19.6
2017-Jul-14 02:00S 30°00' E 167°12'5 5.2 200 / 111023.5 15.9 19.6
2017-Jul-14 01:00S 30°00' E 167°06'   190 / 131023.9 15.6 19.6

Dump ship's entire track history